createdAt,value
2017-12-30T00:01:05.926Z,85.20
2017-12-30T00:03:33.550Z,85.20
2017-12-30T00:06:01.136Z,85.40
2017-12-30T00:08:28.759Z,85.10
2017-12-30T00:10:56.325Z,85.20
2017-12-30T00:13:23.940Z,85.20
2017-12-30T00:15:51.465Z,85.40
2017-12-30T00:18:19.075Z,85.30
2017-12-30T00:20:46.653Z,85.20
2017-12-30T00:23:15.053Z,85.20
2017-12-30T00:25:42.623Z,85.20
2017-12-30T00:28:10.233Z,85.20
2017-12-30T00:30:38.526Z,85.20
2017-12-30T00:33:06.910Z,85.20
2017-12-30T00:35:34.437Z,85.20
2017-12-30T00:38:02.007Z,85.40
2017-12-30T00:40:30.308Z,85.50
2017-12-30T00:42:57.922Z,85.50
2017-12-30T00:45:25.452Z,85.50
2017-12-30T00:47:53.023Z,85.40
2017-12-30T00:50:20.592Z,85.60
2017-12-30T00:52:48.235Z,85.50
2017-12-30T00:55:15.765Z,85.70
2017-12-30T00:57:43.333Z,85.50
2017-12-30T01:00:10.912Z,85.80
2017-12-30T01:02:38.534Z,85.80
2017-12-30T01:05:06.823Z,85.80
2017-12-30T01:07:34.544Z,85.80
2017-12-30T01:10:02.870Z,86.00
2017-12-30T01:12:30.447Z,86.70
2017-12-30T01:14:57.976Z,86.10
2017-12-30T01:17:26.360Z,86.00
2017-12-30T01:19:53.921Z,86.00
2017-12-30T01:22:21.523Z,85.80
2017-12-30T01:24:49.045Z,86.00
2017-12-30T01:27:16.617Z,85.80
2017-12-30T01:29:44.143Z,86.20
2017-12-30T01:32:12.539Z,86.10
2017-12-30T01:34:40.072Z,86.00
2017-12-30T01:37:07.645Z,86.30
2017-12-30T01:39:35.967Z,86.40
2017-12-30T01:42:03.568Z,86.40
2017-12-30T01:44:31.099Z,86.40
2017-12-30T01:46:58.818Z,85.90
2017-12-30T01:49:26.352Z,85.90
2017-12-30T01:51:54.726Z,86.20
2017-12-30T01:54:22.250Z,86.20
2017-12-30T01:56:49.818Z,86.30
2017-12-30T01:59:17.351Z,85.80
2017-12-30T02:01:44.919Z,85.80
2017-12-30T02:04:12.554Z,85.90
2017-12-30T02:06:40.138Z,85.90
2017-12-30T02:09:07.667Z,85.80
2017-12-30T02:11:36.027Z,86.00
2017-12-30T02:14:04.332Z,86.20
2017-12-30T02:16:31.896Z,86.20
2017-12-30T02:18:59.421Z,86.30
2017-12-30T02:21:26.996Z,86.20
2017-12-30T02:23:55.289Z,86.10
2017-12-30T02:26:22.971Z,86.10
2017-12-30T02:28:50.630Z,86.30
2017-12-30T02:31:18.298Z,86.10
2017-12-30T02:33:45.833Z,86.40
2017-12-30T02:36:13.412Z,86.30
2017-12-30T02:38:40.975Z,86.40
2017-12-30T02:41:08.614Z,86.40
2017-12-30T02:43:36.193Z,86.30
2017-12-30T02:46:03.780Z,86.50
2017-12-30T02:48:31.304Z,86.60
2017-12-30T02:50:58.924Z,86.90
2017-12-30T02:53:26.448Z,86.80
2017-12-30T02:55:54.014Z,86.50
2017-12-30T02:58:21.549Z,86.40
2017-12-30T03:00:49.123Z,86.30
2017-12-30T03:03:16.653Z,86.70
2017-12-30T03:05:44.248Z,86.60
2017-12-30T03:08:11.770Z,86.90
2017-12-30T03:10:39.341Z,86.80
2017-12-30T03:13:06.876Z,86.90
2017-12-30T03:15:35.212Z,86.70
2017-12-30T03:18:02.740Z,86.70
2017-12-30T03:20:30.306Z,86.70
2017-12-30T03:22:57.832Z,86.70
2017-12-30T03:25:26.167Z,86.80
2017-12-30T03:27:53.696Z,86.60
2017-12-30T03:30:21.267Z,86.50
2017-12-30T03:32:48.803Z,86.50
2017-12-30T03:35:16.378Z,86.60
2017-12-30T03:37:43.898Z,86.60
2017-12-30T03:40:12.226Z,86.50
2017-12-30T03:42:39.750Z,86.40
2017-12-30T03:45:07.316Z,86.50
2017-12-30T03:47:34.843Z,86.30
2017-12-30T03:50:03.183Z,86.70
2017-12-30T03:52:30.708Z,86.00
2017-12-30T03:54:58.274Z,86.00
2017-12-30T03:57:25.802Z,86.00
2017-12-30T03:59:53.372Z,86.00
2017-12-30T04:02:21.660Z,85.80
2017-12-30T04:04:49.991Z,85.80
2017-12-30T04:07:17.521Z,85.80
2017-12-30T04:09:45.091Z,85.80
2017-12-30T04:12:12.617Z,85.80
2017-12-30T04:14:40.178Z,85.70
2017-12-30T04:17:07.711Z,85.80
2017-12-30T04:19:35.320Z,85.70
2017-12-30T04:22:02.844Z,85.80
2017-12-30T04:24:31.170Z,85.90
2017-12-30T04:26:58.687Z,85.80
2017-12-30T04:29:27.024Z,85.80
2017-12-30T04:31:54.565Z,85.80
2017-12-30T04:34:22.140Z,85.80
2017-12-30T04:36:49.671Z,85.80
2017-12-30T04:39:17.244Z,85.80
2017-12-30T04:41:44.764Z,85.80
2017-12-30T04:44:12.332Z,85.80
2017-12-30T04:46:39.858Z,85.80
2017-12-30T04:49:07.431Z,85.80
2017-12-30T04:51:35.727Z,85.80
2017-12-30T04:54:03.298Z,85.80
2017-12-30T04:56:30.824Z,85.80
2017-12-30T04:58:59.196Z,85.90
2017-12-30T05:01:26.711Z,85.80
2017-12-30T05:03:54.361Z,85.70
2017-12-30T05:06:21.888Z,85.70
2017-12-30T05:08:49.488Z,85.80
2017-12-30T05:11:17.020Z,85.70
2017-12-30T05:13:44.588Z,85.70
2017-12-30T05:16:12.123Z,85.70
2017-12-30T05:18:40.463Z,85.80
2017-12-30T05:21:07.996Z,85.80
2017-12-30T05:23:35.577Z,85.80
2017-12-30T05:26:03.101Z,85.80
2017-12-30T05:28:30.676Z,85.80
2017-12-30T05:30:58.203Z,85.80
2017-12-30T05:33:26.538Z,85.80
2017-12-30T05:35:54.062Z,85.80
2017-12-30T05:38:21.632Z,85.80
2017-12-30T05:40:49.158Z,85.80
2017-12-30T05:43:17.497Z,85.80
2017-12-30T05:45:45.024Z,85.80
2017-12-30T05:48:12.594Z,85.80
2017-12-30T05:50:40.121Z,85.80
2017-12-30T05:53:07.687Z,85.80
2017-12-30T05:55:35.220Z,85.80
2017-12-30T05:58:03.556Z,85.90
2017-12-30T06:00:31.093Z,85.80
2017-12-30T06:02:58.670Z,85.70
2017-12-30T06:05:26.192Z,85.70
2017-12-30T06:07:54.528Z,85.70
2017-12-30T06:10:22.057Z,85.70
2017-12-30T06:12:49.618Z,85.70
2017-12-30T06:15:17.145Z,85.70
2017-12-30T06:17:45.471Z,85.70
2017-12-30T06:20:13.039Z,85.70
2017-12-30T06:22:40.563Z,85.70
2017-12-30T06:25:08.132Z,85.60
2017-12-30T06:27:35.651Z,85.50
2017-12-30T06:30:03.987Z,85.50
2017-12-30T06:32:31.516Z,85.50
2017-12-30T06:34:59.094Z,85.70
2017-12-30T06:37:26.621Z,85.50
2017-12-30T06:39:54.194Z,85.50
2017-12-30T06:42:21.720Z,85.60
2017-12-30T06:44:50.051Z,85.60
2017-12-30T06:47:17.570Z,85.50
2017-12-30T06:49:45.903Z,85.50
2017-12-30T06:52:13.432Z,85.50
2017-12-30T06:54:41.007Z,85.50
2017-12-30T06:57:08.536Z,85.50
2017-12-30T06:59:36.428Z,85.50
2017-12-30T07:02:03.959Z,85.50
2017-12-30T07:04:31.488Z,85.50
2017-12-30T07:06:59.065Z,85.50
2017-12-30T07:09:27.479Z,85.50
2017-12-30T07:11:55.012Z,85.50
2017-12-30T07:14:22.592Z,85.50
2017-12-30T07:16:50.119Z,85.50
2017-12-30T07:19:18.460Z,85.60
2017-12-30T07:21:45.989Z,85.60
2017-12-30T07:24:13.596Z,85.60
2017-12-30T07:26:41.126Z,85.50
2017-12-30T07:29:08.697Z,85.60
2017-12-30T07:31:36.221Z,85.50
2017-12-30T07:34:03.791Z,85.50
2017-12-30T07:36:31.318Z,85.50
2017-12-30T07:38:59.651Z,85.50
2017-12-30T07:41:27.305Z,85.50
2017-12-30T07:43:54.881Z,85.50
2017-12-30T07:46:22.509Z,85.40
2017-12-30T07:48:50.089Z,85.40
2017-12-30T07:51:17.610Z,85.40
2017-12-30T07:53:45.182Z,85.40
2017-12-30T07:56:12.710Z,85.40
2017-12-30T07:58:41.041Z,85.40
2017-12-30T08:01:08.571Z,85.40
2017-12-30T08:03:36.152Z,85.30
2017-12-30T08:06:03.689Z,85.20
2017-12-30T08:08:31.273Z,85.30
2017-12-30T08:10:58.796Z,85.30
2017-12-30T08:13:26.506Z,85.20
2017-12-30T08:15:54.042Z,85.30
2017-12-30T08:18:21.606Z,85.30
2017-12-30T08:20:49.138Z,85.20
2017-12-30T08:23:17.479Z,85.30
2017-12-30T08:25:45.014Z,85.20
2017-12-30T08:28:12.585Z,85.10
2017-12-30T08:30:40.115Z,85.30
2017-12-30T08:33:08.052Z,85.10
2017-12-30T08:35:36.568Z,85.20
2017-12-30T08:38:04.340Z,85.10
2017-12-30T08:40:31.985Z,85.20
2017-12-30T08:42:59.571Z,85.20
2017-12-30T08:45:27.113Z,85.10
2017-12-30T08:47:54.688Z,85.10
2017-12-30T08:50:22.220Z,85.10
2017-12-30T08:52:49.787Z,85.20
2017-12-30T08:55:17.323Z,85.20
2017-12-30T08:57:45.659Z,85.10
2017-12-30T09:00:13.190Z,85.10
2017-12-30T09:02:40.764Z,85.10
2017-12-30T09:05:08.287Z,85.10
2017-12-30T09:07:35.851Z,85.20
2017-12-30T09:10:03.377Z,85.20
2017-12-30T09:12:30.941Z,85.20
2017-12-30T09:14:59.230Z,85.40
2017-12-30T09:17:27.563Z,85.40
2017-12-30T09:19:55.204Z,85.40
2017-12-30T09:22:22.794Z,85.40
2017-12-30T09:24:50.318Z,85.30
2017-12-30T09:27:17.883Z,86.70
2017-12-30T09:29:45.403Z,87.10
2017-12-30T09:32:13.740Z,87.60
2017-12-30T09:34:41.266Z,87.60
2017-12-30T09:37:08.832Z,87.30
2017-12-30T09:39:36.364Z,87.30
2017-12-30T09:42:03.967Z,87.30
2017-12-30T09:44:31.843Z,87.30
2017-12-30T09:46:59.621Z,87.10
2017-12-30T09:49:27.407Z,87.00
2017-12-30T09:51:55.780Z,87.00
2017-12-30T09:54:24.159Z,87.10
2017-12-30T09:56:51.731Z,87.00
2017-12-30T09:59:20.053Z,86.90
2017-12-30T10:01:47.651Z,86.90
2017-12-30T10:04:15.234Z,86.90
2017-12-30T10:06:43.571Z,87.70
2017-12-30T10:09:11.094Z,87.60
2017-12-30T10:11:38.663Z,87.90
2017-12-30T10:14:06.188Z,87.70
2017-12-30T10:16:34.525Z,87.80
2017-12-30T10:19:02.122Z,87.80
2017-12-30T10:21:30.413Z,88.30
2017-12-30T10:23:57.984Z,89.00
2017-12-30T10:26:25.508Z,87.70
2017-12-30T10:28:53.075Z,88.00
2017-12-30T10:31:21.391Z,88.40
2017-12-30T10:33:48.913Z,88.40
2017-12-30T10:36:17.267Z,87.80
2017-12-30T10:38:46.308Z,87.80
2017-12-30T10:41:13.890Z,87.70
2017-12-30T10:43:41.464Z,88.20
2017-12-30T10:46:08.999Z,88.20
2017-12-30T10:48:36.523Z,88.60
2017-12-30T10:51:04.862Z,88.30
2017-12-30T10:53:32.427Z,88.30
2017-12-30T10:55:59.961Z,88.30
2017-12-30T10:58:27.488Z,87.70
2017-12-30T11:00:59.017Z,88.70
2017-12-30T11:03:26.715Z,89.50
2017-12-30T11:05:54.982Z,89.50
2017-12-30T11:08:23.310Z,89.70
2017-12-30T11:10:51.359Z,89.70
2017-12-30T11:13:18.954Z,88.70
2017-12-30T11:15:46.479Z,89.70
2017-12-30T11:18:14.054Z,90.00
2017-12-30T11:20:41.589Z,89.70
2017-12-30T11:23:09.118Z,90.00
2017-12-30T11:25:37.448Z,90.00
2017-12-30T11:28:08.750Z,89.90
2017-12-30T11:30:47.285Z,89.60
2017-12-30T11:33:14.854Z,89.40
2017-12-30T11:35:42.401Z,89.30
2017-12-30T11:38:09.986Z,89.40
2017-12-30T11:40:37.511Z,89.40
2017-12-30T11:43:05.095Z,89.50
2017-12-30T11:45:32.698Z,89.80
2017-12-30T11:48:00.272Z,89.50
2017-12-30T11:50:28.571Z,89.50
2017-12-30T11:52:56.137Z,89.50
2017-12-30T11:55:23.667Z,89.40
2017-12-30T11:57:52.002Z,89.60
2017-12-30T12:00:19.600Z,89.60
2017-12-30T12:02:47.190Z,89.80
2017-12-30T12:05:14.723Z,90.00
2017-12-30T12:07:43.124Z,90.20
2017-12-30T12:10:10.686Z,90.20
2017-12-30T12:12:38.328Z,90.10
2017-12-30T12:15:06.671Z,90.10
2017-12-30T12:17:34.264Z,90.10
2017-12-30T12:20:02.688Z,90.10
2017-12-30T12:22:30.327Z,90.10
2017-12-30T12:24:57.906Z,90.10
2017-12-30T12:27:25.479Z,90.30
2017-12-30T12:29:52.996Z,90.20
2017-12-30T12:32:21.340Z,90.40
2017-12-30T12:34:48.863Z,90.40
2017-12-30T12:37:16.381Z,90.40
2017-12-30T12:39:44.711Z,90.40
2017-12-30T12:42:12.280Z,90.40
2017-12-30T12:44:39.809Z,90.30
2017-12-30T12:47:07.376Z,90.60
2017-12-30T12:49:34.905Z,90.50
2017-12-30T12:52:03.254Z,90.50
2017-12-30T12:54:30.785Z,90.50
2017-12-30T12:56:58.309Z,90.60
2017-12-30T12:59:25.881Z,90.60
2017-12-30T13:01:53.414Z,90.60
2017-12-30T13:04:20.998Z,90.60
2017-12-30T13:06:48.525Z,90.70
2017-12-30T13:09:16.131Z,90.70
2017-12-30T13:11:43.654Z,90.70
2017-12-30T13:14:11.991Z,90.80
2017-12-30T13:16:39.514Z,90.80
2017-12-30T13:19:07.080Z,90.70
2017-12-30T13:21:34.609Z,90.90
2017-12-30T13:24:02.940Z,91.00
2017-12-30T13:26:33.272Z,91.00
2017-12-30T13:28:58.064Z,90.70
2017-12-30T13:31:25.591Z,90.70
2017-12-30T13:33:53.159Z,90.90
2017-12-30T13:36:20.683Z,90.90
2017-12-30T13:38:49.019Z,90.90
2017-12-30T13:41:16.546Z,90.90
2017-12-30T13:43:44.117Z,91.00
2017-12-30T13:46:11.648Z,90.90
2017-12-30T13:48:40.056Z,90.90
2017-12-30T13:51:07.590Z,90.90
2017-12-30T13:53:35.159Z,90.90
2017-12-30T13:56:02.800Z,91.10
2017-12-30T13:58:30.378Z,91.00
2017-12-30T14:00:57.954Z,91.10
2017-12-30T14:03:25.519Z,91.00
2017-12-30T14:05:53.055Z,91.00
2017-12-30T14:08:20.618Z,91.10
2017-12-30T14:10:48.148Z,91.10
2017-12-30T14:13:16.525Z,91.10
2017-12-30T14:15:44.051Z,91.00
2017-12-30T14:18:11.621Z,91.20
2017-12-30T14:20:39.187Z,91.30
2017-12-30T14:23:06.779Z,91.50
2017-12-30T14:25:35.073Z,91.50
2017-12-30T14:28:02.641Z,91.50
2017-12-30T14:30:30.212Z,91.60
2017-12-30T14:32:57.783Z,91.60
2017-12-30T14:35:25.352Z,91.80
2017-12-30T14:37:52.923Z,91.70
2017-12-30T14:40:20.563Z,91.80
2017-12-30T14:42:48.162Z,91.70
2017-12-30T14:45:16.712Z,92.00
2017-12-30T14:47:44.241Z,92.00
2017-12-30T14:50:11.854Z,92.10
2017-12-30T14:52:39.384Z,92.00
2017-12-30T14:55:06.947Z,91.90
2017-12-30T14:57:34.472Z,92.00
2017-12-30T15:00:02.038Z,92.20
2017-12-30T15:02:29.571Z,92.60
2017-12-30T15:04:57.987Z,92.30
2017-12-30T15:07:25.511Z,92.20
2017-12-30T15:09:53.897Z,92.10
2017-12-30T15:12:22.186Z,92.40
2017-12-30T15:14:49.761Z,92.30
2017-12-30T15:17:17.338Z,92.30
2017-12-30T15:19:44.924Z,92.60
2017-12-30T15:22:12.454Z,92.40
2017-12-30T15:24:40.024Z,92.40
2017-12-30T15:27:07.593Z,92.10
2017-12-30T15:29:35.164Z,92.10
2017-12-30T15:32:02.739Z,92.10
2017-12-30T15:34:31.102Z,91.80
2017-12-30T15:36:58.631Z,91.80
2017-12-30T15:39:26.158Z,91.80
2017-12-30T15:41:53.772Z,91.60
2017-12-30T15:44:21.346Z,91.60
2017-12-30T15:46:48.923Z,91.60
2017-12-30T15:49:17.210Z,91.90
2017-12-30T15:51:45.543Z,91.80
2017-12-30T15:54:13.065Z,91.80
2017-12-30T15:56:40.635Z,91.80
2017-12-30T15:59:08.161Z,91.60
2017-12-30T16:01:36.533Z,92.00
2017-12-30T16:04:04.822Z,91.80
2017-12-30T16:06:32.438Z,91.80
2017-12-30T16:08:59.967Z,91.80
2017-12-30T16:11:27.583Z,91.80
2017-12-30T16:13:55.883Z,91.90
2017-12-30T16:16:23.497Z,91.90
2017-12-30T16:18:51.067Z,91.60
2017-12-30T16:21:18.675Z,92.00
2017-12-30T16:23:46.245Z,91.90
2017-12-30T16:26:13.817Z,92.10
2017-12-30T16:28:41.341Z,92.20
2017-12-30T16:31:08.906Z,92.10
2017-12-30T16:33:36.434Z,92.10
2017-12-30T16:36:03.994Z,92.30
2017-12-30T16:38:32.288Z,92.40
2017-12-30T16:41:00.661Z,92.30
2017-12-30T16:43:29.205Z,92.50
2017-12-30T16:45:56.971Z,92.40
2017-12-30T16:48:24.518Z,92.30
2017-12-30T16:50:52.082Z,92.50
2017-12-30T16:53:19.612Z,92.20
2017-12-30T16:55:47.184Z,92.30
2017-12-30T16:58:14.710Z,92.30
2017-12-30T17:00:43.043Z,92.40
2017-12-30T17:03:10.573Z,92.40
2017-12-30T17:05:39.626Z,92.40
2017-12-30T17:08:07.924Z,92.60
2017-12-30T17:10:35.485Z,92.20
2017-12-30T17:13:03.021Z,91.90
2017-12-30T17:15:30.584Z,92.10
2017-12-30T17:17:58.883Z,92.60
2017-12-30T17:20:26.450Z,92.60
2017-12-30T17:22:54.032Z,92.40
2017-12-30T17:25:21.595Z,92.40
2017-12-30T17:27:49.122Z,92.10
2017-12-30T17:30:16.703Z,92.30
2017-12-30T17:32:44.230Z,92.20
2017-12-30T17:35:12.620Z,92.00
2017-12-30T17:37:40.436Z,92.00
2017-12-30T17:40:08.004Z,92.00
2017-12-30T17:42:39.327Z,92.30
2017-12-30T17:45:06.946Z,92.30
2017-12-30T17:47:35.286Z,92.10
2017-12-30T17:50:02.906Z,92.10
2017-12-30T17:52:33.350Z,92.20
2017-12-30T17:55:00.979Z,92.30
2017-12-30T17:57:29.314Z,92.40
2017-12-30T17:59:56.899Z,92.30
2017-12-30T18:02:25.282Z,92.20
2017-12-30T18:04:53.575Z,92.60
2017-12-30T18:07:21.950Z,92.50
2017-12-30T18:09:50.283Z,92.40
2017-12-30T18:12:17.905Z,92.40
2017-12-30T18:14:45.480Z,92.10
2017-12-30T18:17:13.204Z,92.10
2017-12-30T18:19:41.543Z,92.20
2017-12-30T18:22:09.120Z,92.20
2017-12-30T18:24:36.699Z,91.90
2017-12-30T18:27:05.093Z,92.10
2017-12-30T18:29:32.677Z,92.10
2017-12-30T18:32:00.299Z,92.50
2017-12-30T18:34:28.642Z,92.20
2017-12-30T18:36:56.281Z,92.20
2017-12-30T18:39:23.852Z,92.30
2017-12-30T18:41:51.456Z,92.10
2017-12-30T18:44:19.810Z,92.00
2017-12-30T18:46:47.441Z,92.00
2017-12-30T18:49:15.043Z,91.80
2017-12-30T18:51:43.388Z,92.70
2017-12-30T18:54:10.978Z,92.30
2017-12-30T18:56:38.763Z,92.30
2017-12-30T18:59:06.446Z,92.20
2017-12-30T19:01:34.101Z,92.30
2017-12-30T19:04:01.703Z,92.00
2017-12-30T19:06:29.363Z,92.20
2017-12-30T19:08:57.021Z,92.00
2017-12-30T19:11:24.614Z,91.90
2017-12-30T19:13:52.236Z,92.10
2017-12-30T19:16:19.818Z,92.10
2017-12-30T19:18:47.561Z,91.90
2017-12-30T19:21:15.105Z,92.10
2017-12-30T19:23:42.733Z,92.10
2017-12-30T19:26:11.091Z,91.90
2017-12-30T19:28:39.483Z,91.90
2017-12-30T19:31:07.070Z,91.90
2017-12-30T19:33:34.718Z,92.00
2017-12-30T19:36:03.125Z,91.80
2017-12-30T19:38:30.935Z,91.80
2017-12-30T19:40:58.773Z,91.80
2017-12-30T19:43:26.538Z,91.90
2017-12-30T19:45:54.126Z,91.90
2017-12-30T19:48:21.967Z,92.00
2017-12-30T19:50:49.731Z,91.90
2017-12-30T19:53:17.409Z,92.00
2017-12-30T19:55:45.156Z,91.90
2017-12-30T19:58:13.021Z,92.10
2017-12-30T20:00:40.684Z,91.80
2017-12-30T20:03:08.448Z,92.20
2017-12-30T20:05:36.122Z,92.00
2017-12-30T20:08:03.875Z,92.00
2017-12-30T20:10:31.686Z,91.90
2017-12-30T20:13:00.163Z,91.80
2017-12-30T20:15:28.704Z,92.00
2017-12-30T20:17:56.373Z,92.00
2017-12-30T20:20:24.001Z,92.00
2017-12-30T20:22:51.665Z,91.90
2017-12-30T20:25:19.454Z,91.90
2017-12-30T20:27:47.094Z,92.00
2017-12-30T20:30:14.881Z,92.00
2017-12-30T20:32:42.646Z,92.30
2017-12-30T20:35:10.342Z,91.90
2017-12-30T20:37:37.927Z,92.30
2017-12-30T20:40:06.361Z,92.10
2017-12-30T20:42:33.978Z,92.40
2017-12-30T20:45:01.682Z,92.50
2017-12-30T20:47:29.272Z,92.00
2017-12-30T20:49:56.895Z,92.40
2017-12-30T20:52:24.487Z,92.10
2017-12-30T20:54:52.226Z,92.00
2017-12-30T20:57:19.824Z,92.00
2017-12-30T20:59:47.581Z,92.20
2017-12-30T21:02:15.175Z,92.00
2017-12-30T21:04:42.799Z,92.00
2017-12-30T21:07:11.910Z,92.10
2017-12-30T21:09:40.302Z,92.20
2017-12-30T21:12:08.655Z,92.20
2017-12-30T21:14:36.291Z,92.20
2017-12-30T21:17:05.503Z,92.20
2017-12-30T21:19:33.127Z,92.10
2017-12-30T21:22:00.705Z,92.10
2017-12-30T21:24:28.330Z,92.20
2017-12-30T21:26:55.927Z,92.10
2017-12-30T21:29:23.542Z,92.30
2017-12-30T21:31:51.927Z,92.10
2017-12-30T21:34:20.274Z,92.10
2017-12-30T21:36:47.885Z,92.10
2017-12-30T21:39:15.666Z,92.10
2017-12-30T21:41:43.291Z,92.20
2017-12-30T21:44:10.866Z,92.30
2017-12-30T21:46:38.445Z,92.50
2017-12-30T21:49:06.067Z,92.20
2017-12-30T21:51:34.419Z,92.50
2017-12-30T21:54:02.039Z,92.50
2017-12-30T21:56:29.627Z,92.10
2017-12-30T21:58:57.251Z,92.20
2017-12-30T22:01:24.851Z,92.20
2017-12-30T22:03:52.489Z,92.30
2017-12-30T22:06:20.072Z,92.20
2017-12-30T22:08:47.658Z,92.20
2017-12-30T22:11:16.047Z,92.10
2017-12-30T22:13:44.438Z,92.10
2017-12-30T22:16:12.062Z,92.10
2017-12-30T22:18:39.658Z,92.10
2017-12-30T22:21:07.284Z,92.20
2017-12-30T22:23:34.875Z,92.00
2017-12-30T22:26:03.271Z,92.10
2017-12-30T22:28:30.859Z,92.00
2017-12-30T22:30:58.466Z,92.10
2017-12-30T22:33:26.815Z,92.20
2017-12-30T22:35:54.448Z,92.20
2017-12-30T22:38:22.103Z,92.30
2017-12-30T22:40:49.684Z,92.10
2017-12-30T22:43:17.298Z,92.10
2017-12-30T22:45:44.921Z,92.10
2017-12-30T22:48:12.537Z,92.10
2017-12-30T22:50:40.123Z,92.00
2017-12-30T22:53:07.708Z,92.00
2017-12-30T22:55:35.326Z,92.00
2017-12-30T22:58:02.906Z,92.00
2017-12-30T23:00:37.738Z,92.20
2017-12-30T23:03:05.323Z,92.10
2017-12-30T23:05:32.900Z,92.10
2017-12-30T23:08:01.270Z,92.10
2017-12-30T23:10:28.890Z,92.10
2017-12-30T23:12:56.553Z,92.10
2017-12-30T23:15:24.188Z,92.10
2017-12-30T23:17:51.770Z,92.20
2017-12-30T23:20:19.357Z,92.20
2017-12-30T23:22:46.979Z,92.20
2017-12-30T23:25:14.559Z,92.10
2017-12-30T23:27:42.175Z,92.10
2017-12-30T23:30:10.597Z,92.20
2017-12-30T23:32:38.224Z,92.20
2017-12-30T23:35:05.788Z,92.20
2017-12-30T23:37:33.378Z,92.10
2017-12-30T23:40:01.010Z,92.10
2017-12-30T23:42:28.599Z,92.30
2017-12-30T23:44:56.264Z,92.10
2017-12-30T23:47:23.889Z,92.20
2017-12-30T23:49:51.486Z,92.20
2017-12-30T23:52:19.112Z,92.20
2017-12-30T23:54:46.729Z,92.50
2017-12-30T23:57:14.358Z,92.10
2017-12-30T23:59:41.954Z,92.50
